Time;durP1;ratioP1;P1;durP2;ratioP2;P2;SDS_P1;SDS_P2;PMS_P1;PMS_P2;Temp;Humidity;BMP_temperature;BMP_pressure;BME280_temperature;BME280_humidity;BME280_pressure;Samples;Min_cycle;Max_cycle;Signal;HPM_P1;HPM_P2
2022/04/21 00:00:13;;;;;;;6.43;3.75;;;;;;;;;;5015695;28;20497;-80
2022/04/21 00:02:38;;;;;;;6.22;4.13;;;;;;;;;;5014386;28;20065;-80
2022/04/21 00:05:03;;;;;;;6.82;4.22;;;;;;;;;;5014621;28;20087;-80
2022/04/21 00:07:31;;;;;;;7.80;4.43;;;;;;;;;;5014147;28;20057;-80
2022/04/21 00:09:57;;;;;;;7.25;4.30;;;;;;;;;;5014997;28;20033;-80
2022/04/21 00:12:22;;;;;;;7.20;3.90;;;;;;;;;;4997657;28;20120;-80
2022/04/21 00:14:48;;;;;;;5.20;3.25;;;;;;;;;;5014938;28;20406;-80
2022/04/21 00:17:13;;;;;;;5.10;3.25;;;;;;;;;;5014898;28;20046;-80
2022/04/21 00:19:38;;;;;;;4.95;3.15;;;;;;;;;;5014541;28;20032;-80
2022/04/21 00:24:47;;;;;;;5.78;3.20;;;;;;;;;;5015690;28;20049;-80
2022/04/21 00:27:13;;;;;;;5.30;3.22;;;;;;;;;;5013692;28;20053;-80
2022/04/21 00:29:38;;;;;;;7.13;3.35;;;;;;;;;;5014765;28;20044;-80
2022/04/21 00:32:03;;;;;;;5.80;3.17;;;;;;;;;;5015050;28;20092;-80
2022/04/21 00:34:28;;;;;;;5.93;3.20;;;;;;;;;;5014410;28;20045;-80
2022/04/21 00:36:54;;;;;;;4.20;2.80;;;;;;;;;;5015321;28;20124;-80
2022/04/21 00:39:19;;;;;;;5.93;3.30;;;;;;;;;;5015428;28;20026;-80
2022/04/21 00:41:44;;;;;;;4.45;3.00;;;;;;;;;;5015024;28;20158;-80
2022/04/21 00:44:09;;;;;;;5.50;3.22;;;;;;;;;;5013612;28;20033;-80
2022/04/21 00:46:35;;;;;;;5.13;3.17;;;;;;;;;;5014225;28;20022;-80
2022/04/21 00:49:00;;;;;;;5.28;3.10;;;;;;;;;;5014789;28;20510;-80
2022/04/21 00:51:25;;;;;;;6.22;3.63;;;;;;;;;;5015061;28;20451;-80
2022/04/21 00:53:50;;;;;;;4.95;3.58;;;;;;;;;;5013609;28;20061;-80
2022/04/21 00:56:16;;;;;;;6.00;3.65;;;;;;;;;;5014419;28;20033;-80
2022/04/21 00:58:41;;;;;;;5.32;3.70;;;;;;;;;;5014678;28;20036;-80
2022/04/21 01:02:46;;;;;;;6.85;3.70;;;;;;;;;;5014889;28;20068;-80
2022/04/21 01:03:52;;;;;;;8.43;4.65;;;;;;;;;;5014209;28;20042;-80
2022/04/21 01:06:17;;;;;;;6.00;3.40;;;;;;;;;;5014352;28;20029;-80
2022/04/21 01:08:42;;;;;;;4.95;3.28;;;;;;;;;;5013459;28;20410;-80
2022/04/21 01:11:07;;;;;;;5.95;3.30;;;;;;;;;;5015094;28;20030;-80
2022/04/21 01:13:33;;;;;;;4.88;2.97;;;;;;;;;;5014632;28;20046;-80
2022/04/21 01:15:58;;;;;;;7.70;3.30;;;;;;;;;;5012937;28;20042;-80
2022/04/21 01:18:23;;;;;;;9.13;3.65;;;;;;;;;;5014415;28;20037;-80
2022/04/21 01:20:48;;;;;;;5.78;3.40;;;;;;;;;;4997422;28;20513;-80
2022/04/21 01:23:14;;;;;;;5.55;3.28;;;;;;;;;;5014561;28;20041;-80
2022/04/21 01:25:40;;;;;;;4.38;3.10;;;;;;;;;;5012771;28;20037;-79
2022/04/21 01:28:06;;;;;;;5.10;3.05;;;;;;;;;;5014808;28;20387;-80
2022/04/21 01:30:31;;;;;;;5.47;3.10;;;;;;;;;;5014622;28;20113;-80
2022/04/21 01:32:56;;;;;;;5.75;2.80;;;;;;;;;;5013191;28;20065;-80
2022/04/21 01:35:22;;;;;;;4.57;2.97;;;;;;;;;;5013441;28;20041;-80
2022/04/21 01:43:16;;;;;;;;;;;;;;;;;;5014299;28;20128;-80
2022/04/21 01:45:43;;;;;;;4.65;2.65;;;;;;;;;;5013900;28;19913;-80
2022/04/21 01:48:08;;;;;;;5.13;2.97;;;;;;;;;;5012961;28;20032;-81
2022/04/21 01:50:33;;;;;;;4.28;2.92;;;;;;;;;;5014753;28;20112;-81
2022/04/21 01:52:58;;;;;;;6.00;3.40;;;;;;;;;;5012864;28;20517;-81
2022/04/21 01:55:24;;;;;;;6.10;3.40;;;;;;;;;;5012806;28;20026;-80
2022/04/21 01:57:49;;;;;;;5.07;3.10;;;;;;;;;;5013240;28;20120;-81
2022/04/21 02:00:14;;;;;;;5.68;3.35;;;;;;;;;;5011966;28;20029;-81
2022/04/21 02:02:39;;;;;;;5.93;3.35;;;;;;;;;;4995984;28;20509;-80
2022/04/21 02:05:05;;;;;;;5.88;3.60;;;;;;;;;;5011353;28;20060;-80
2022/04/21 02:07:30;;;;;;;3.92;2.90;;;;;;;;;;5013275;28;20030;-80
2022/04/21 02:09:55;;;;;;;6.32;3.28;;;;;;;;;;5013408;28;20034;-81
2022/04/21 02:12:21;;;;;;;4.82;3.10;;;;;;;;;;5013275;28;20550;-80
2022/04/21 02:14:46;;;;;;;6.40;2.90;;;;;;;;;;5012749;28;20042;-80
2022/04/21 02:17:11;;;;;;;6.40;3.33;;;;;;;;;;5015879;28;20034;-80
2022/04/21 02:19:36;;;;;;;4.80;3.00;;;;;;;;;;5017047;28;20478;-80
2022/04/21 02:22:02;;;;;;;4.45;2.70;;;;;;;;;;5017018;28;20065;-80
2022/04/21 02:24:27;;;;;;;4.20;3.08;;;;;;;;;;5014977;28;20321;-80
2022/04/21 02:26:52;;;;;;;4.93;2.92;;;;;;;;;;5016692;28;20030;-80
2022/04/21 02:29:18;;;;;;;6.05;3.10;;;;;;;;;;5017147;28;20120;-80
2022/04/21 02:31:43;;;;;;;6.18;3.08;;;;;;;;;;5015205;28;20034;-81
2022/04/21 02:34:08;;;;;;;5.43;3.20;;;;;;;;;;5016395;28;20034;-80
2022/04/21 02:36:33;;;;;;;4.38;2.90;;;;;;;;;;5017008;28;20387;-81
2022/04/21 02:38:59;;;;;;;6.00;2.83;;;;;;;;;;5016268;28;20123;-80
2022/04/21 02:41:24;;;;;;;3.97;2.90;;;;;;;;;;5016449;28;20041;-81
2022/04/21 02:43:50;;;;;;;8.55;3.08;;;;;;;;;;5015918;28;20490;-80
2022/04/21 02:46:16;;;;;;;4.72;3.00;;;;;;;;;;5016860;28;20227;-80
2022/04/21 02:48:41;;;;;;;4.65;3.17;;;;;;;;;;5016748;28;20037;-81
2022/04/21 02:51:06;;;;;;;4.78;3.00;;;;;;;;;;5017323;28;20109;-81
2022/04/21 02:59:00;;;;;;;4.60;2.95;;;;;;;;;;5015817;28;20034;-81
2022/04/21 03:01:25;;;;;;;5.95;3.40;;;;;;;;;;5016288;28;20028;-81
2022/04/21 03:03:51;;;;;;;4.47;2.90;;;;;;;;;;5016224;28;20445;-80
2022/04/21 03:06:19;;;;;;;3.13;2.38;;;;;;;;;;5015319;28;20030;-80
2022/04/21 03:08:44;;;;;;;6.47;2.95;;;;;;;;;;5015543;28;20038;-80
2022/04/21 03:11:09;;;;;;;5.88;2.78;;;;;;;;;;5015215;28;20037;-79
2022/04/21 03:13:35;;;;;;;4.05;2.88;;;;;;;;;;5014380;28;20435;-80
2022/04/21 03:16:00;;;;;;;4.43;2.88;;;;;;;;;;5013792;28;20034;-80
2022/04/21 03:18:25;;;;;;;5.13;3.00;;;;;;;;;;5014715;28;20137;-80
2022/04/21 03:26:18;;;;;;;;;;;;;;;;;;5014654;28;20076;-78
2022/04/21 03:28:44;;;;;;;4.15;3.03;;;;;;;;;;5014786;28;20366;-79
2022/04/21 03:31:09;;;;;;;4.70;2.88;;;;;;;;;;5015505;28;20044;-81
2022/04/21 03:33:34;;;;;;;5.03;3.15;;;;;;;;;;5016220;28;20026;-80
2022/04/21 03:35:59;;;;;;;4.18;3.03;;;;;;;;;;4997936;28;20128;-81
2022/04/21 03:38:25;;;;;;;7.45;4.32;;;;;;;;;;5015239;28;20037;-80
2022/04/21 03:40:50;;;;;;;7.43;4.40;;;;;;;;;;5016526;28;20050;-80
2022/04/21 03:43:15;;;;;;;4.43;3.08;;;;;;;;;;5016078;28;20026;-80
2022/04/21 03:45:40;;;;;;;4.85;3.03;;;;;;;;;;5015484;28;20041;-80
2022/04/21 03:48:06;;;;;;;4.13;2.90;;;;;;;;;;5014902;28;20037;-80
2022/04/21 03:50:31;;;;;;;5.03;3.28;;;;;;;;;;5014094;28;20037;-81
2022/04/21 03:52:57;;;;;;;4.53;3.05;;;;;;;;;;5014998;28;20029;-81
2022/04/21 03:55:22;;;;;;;4.07;2.80;;;;;;;;;;5014588;28;20030;-81
2022/04/21 03:57:47;;;;;;;4.18;3.10;;;;;;;;;;5015744;28;20038;-81
2022/04/21 04:00:12;;;;;;;5.80;3.10;;;;;;;;;;4997715;28;20030;-81
2022/04/21 04:02:37;;;;;;;4.80;3.20;;;;;;;;;;5014734;28;20410;-81
2022/04/21 04:05:03;;;;;;;4.65;3.17;;;;;;;;;;5014779;28;20034;-80
2022/04/21 04:12:56;;;;;;;;;;;;;;;;;;5015188;28;20037;-78
2022/04/21 04:15:21;;;;;;;3.80;2.53;;;;;;;;;;5012856;28;19918;-80
2022/04/21 04:17:47;;;;;;;5.75;2.95;;;;;;;;;;5014400;28;20118;-80
2022/04/21 04:20:12;;;;;;;6.70;4.28;;;;;;;;;;5013844;28;20065;-81
2022/04/21 04:22:40;;;;;;;5.35;3.10;;;;;;;;;;5014808;28;20498;-81
2022/04/21 04:25:05;;;;;;;6.53;3.58;;;;;;;;;;5014809;28;20033;-81
2022/04/21 04:27:30;;;;;;;5.80;3.70;;;;;;;;;;4998155;28;20034;-81
2022/04/21 04:29:55;;;;;;;11.65;4.25;;;;;;;;;;5015122;28;20068;-81
2022/04/21 04:32:21;;;;;;;76.15;33.65;;;;;;;;;;5015223;28;20030;-80
2022/04/21 04:34:46;;;;;;;78.57;36.08;;;;;;;;;;5012962;28;20030;-80
2022/04/21 04:37:11;;;;;;;33.75;18.60;;;;;;;;;;5015138;28;20044;-80
2022/04/21 04:39:37;;;;;;;12.55;7.78;;;;;;;;;;5014088;28;20438;-80
2022/04/21 04:42:17;;;;;;;8.90;3.90;;;;;;;;;;5013973;28;20044;-80
2022/04/21 04:44:43;;;;;;;10.00;4.80;;;;;;;;;;5014314;28;20033;-80
2022/04/21 04:47:08;;;;;;;5.93;3.80;;;;;;;;;;5015048;28;20466;-81
2022/04/21 04:49:33;;;;;;;6.05;3.33;;;;;;;;;;5014849;28;20040;-81
2022/04/21 04:51:58;;;;;;;6.78;4.30;;;;;;;;;;5014552;28;20030;-80
2022/04/21 04:54:25;;;;;;;14.75;7.97;;;;;;;;;;5013276;28;20042;-80
2022/04/21 04:56:50;;;;;;;6.72;3.40;;;;;;;;;;5013400;28;20045;-80
2022/04/21 04:59:16;;;;;;;8.85;4.25;;;;;;;;;;5014079;28;20021;-80
2022/04/21 05:01:41;;;;;;;7.57;4.47;;;;;;;;;;5013750;28;20045;-81
2022/04/21 05:04:06;;;;;;;7.13;4.30;;;;;;;;;;5013069;28;20073;-81
2022/04/21 05:06:32;;;;;;;6.63;4.22;;;;;;;;;;5014111;28;20030;-80
2022/04/21 05:08:57;;;;;;;6.55;4.32;;;;;;;;;;5012706;28;20410;-81
2022/04/21 05:11:22;;;;;;;9.50;4.20;;;;;;;;;;5013202;28;20061;-81
2022/04/21 05:13:47;;;;;;;7.70;4.53;;;;;;;;;;5014666;28;20045;-81
2022/04/21 05:16:13;;;;;;;10.13;4.40;;;;;;;;;;5012974;28;20034;-81
2022/04/21 05:18:38;;;;;;;5.50;3.80;;;;;;;;;;5013963;28;20108;-81
2022/04/21 05:21:03;;;;;;;6.72;3.50;;;;;;;;;;5012823;28;20041;-81
2022/04/21 05:23:28;;;;;;;8.73;4.40;;;;;;;;;;5013469;28;20034;-81
2022/04/21 05:25:54;;;;;;;11.65;6.30;;;;;;;;;;5012930;28;20034;-80
2022/04/21 05:28:24;;;;;;;5.10;3.35;;;;;;;;;;5013290;28;20406;-81
2022/04/21 05:30:55;;;;;;;7.05;3.67;;;;;;;;;;5013692;28;20029;-80
2022/04/21 05:33:20;;;;;;;4.65;3.47;;;;;;;;;;5013199;28;20040;-80
2022/04/21 05:35:45;;;;;;;5.70;3.50;;;;;;;;;;5011617;28;20030;-80
2022/04/21 05:38:11;;;;;;;6.05;3.47;;;;;;;;;;5013225;28;20040;-80
2022/04/21 05:40:36;;;;;;;3.95;3.00;;;;;;;;;;5012954;28;20147;-80
2022/04/21 05:43:01;;;;;;;4.45;3.40;;;;;;;;;;5013536;28;20034;-80
2022/04/21 05:45:27;;;;;;;6.30;3.58;;;;;;;;;;5011319;28;20493;-80
2022/04/21 05:47:52;;;;;;;4.90;3.35;;;;;;;;;;5012511;28;20461;-80
2022/04/21 05:50:17;;;;;;;7.43;3.55;;;;;;;;;;5016038;28;20034;-81
2022/04/21 05:52:43;;;;;;;5.47;3.50;;;;;;;;;;5016774;28;20032;-80
2022/04/21 05:55:08;;;;;;;6.03;3.28;;;;;;;;;;5016777;28;20034;-80
2022/04/21 05:57:35;;;;;;;4.45;3.10;;;;;;;;;;5017104;28;20438;-80
2022/04/21 06:00:00;;;;;;;4.85;3.20;;;;;;;;;;5015610;28;20052;-80
2022/04/21 06:02:25;;;;;;;6.43;3.75;;;;;;;;;;5017123;28;20030;-80
2022/04/21 06:04:50;;;;;;;5.13;3.47;;;;;;;;;;5016370;28;20030;-80
2022/04/21 06:07:16;;;;;;;5.60;3.53;;;;;;;;;;5017174;28;20045;-80
2022/04/21 06:09:41;;;;;;;5.25;3.50;;;;;;;;;;5015931;28;20038;-81
2022/04/21 06:12:07;;;;;;;7.18;4.70;;;;;;;;;;5017276;28;20410;-80
2022/04/21 06:14:34;;;;;;;6.82;4.47;;;;;;;;;;4998454;28;20038;-80
2022/04/21 06:16:59;;;;;;;8.10;3.72;;;;;;;;;;5015585;28;20512;-80
2022/04/21 06:19:25;;;;;;;5.50;3.90;;;;;;;;;;5016375;28;20518;-80
2022/04/21 06:21:50;;;;;;;6.00;4.10;;;;;;;;;;5016905;28;20037;-80
2022/04/21 06:24:15;;;;;;;5.68;3.90;;;;;;;;;;5016134;28;20044;-80
2022/04/21 06:26:42;;;;;;;6.50;4.30;;;;;;;;;;5016986;28;20029;-80
2022/04/21 06:29:08;;;;;;;6.85;4.18;;;;;;;;;;5015674;28;20045;-80
2022/04/21 06:31:36;;;;;;;7.55;4.40;;;;;;;;;;5016416;28;20025;-80
2022/04/21 06:34:01;;;;;;;7.32;4.22;;;;;;;;;;5015801;28;20041;-80
2022/04/21 06:36:27;;;;;;;6.13;4.22;;;;;;;;;;5015507;28;20038;-81
2022/04/21 06:38:52;;;;;;;6.75;4.30;;;;;;;;;;5016426;28;20034;-80
2022/04/21 06:41:18;;;;;;;6.65;4.32;;;;;;;;;;5015561;28;20124;-80
2022/04/21 06:49:11;;;;;;;7.80;4.97;;;;;;;;;;5011711;28;20041;-77
2022/04/21 06:51:36;;;;;;;7.07;4.85;;;;;;;;;;5016180;28;20042;-79
2022/04/21 06:54:01;;;;;;;10.65;5.10;;;;;;;;;;5015767;28;20022;-79
2022/04/21 06:56:27;;;;;;;7.00;5.13;;;;;;;;;;4998503;28;20040;-79
2022/04/21 06:58:52;;;;;;;7.63;5.03;;;;;;;;;;5014647;28;20156;-79
2022/04/21 07:01:17;;;;;;;9.02;4.97;;;;;;;;;;5015650;28;20037;-80
2022/04/21 07:03:43;;;;;;;7.78;5.05;;;;;;;;;;5014728;28;20073;-80
2022/04/21 07:06:08;;;;;;;8.25;4.40;;;;;;;;;;5014097;28;20096;-80
2022/04/21 07:08:34;;;;;;;9.40;4.63;;;;;;;;;;5014564;28;20525;-80
2022/04/21 07:10:59;;;;;;;6.93;4.30;;;;;;;;;;5015071;28;20025;-81
2022/04/21 07:13:24;;;;;;;6.85;4.45;;;;;;;;;;5015360;28;20069;-81
2022/04/21 07:15:50;;;;;;;6.03;4.10;;;;;;;;;;5014913;28;20037;-81
2022/04/21 07:18:16;;;;;;;7.35;4.50;;;;;;;;;;5015422;28;20026;-81
2022/04/21 07:20:41;;;;;;;5.15;3.67;;;;;;;;;;5014059;28;20565;-81
2022/04/21 07:23:07;;;;;;;6.45;3.33;;;;;;;;;;5015354;28;20112;-80
2022/04/21 07:25:33;;;;;;;4.63;3.08;;;;;;;;;;5013986;28;20069;-80
2022/04/21 07:27:58;;;;;;;3.53;2.90;;;;;;;;;;5013416;28;20069;-81
2022/04/21 07:30:23;;;;;;;3.72;3.15;;;;;;;;;;5015075;28;20041;-81
2022/04/21 07:32:48;;;;;;;4.43;3.20;;;;;;;;;;5014059;28;20038;-80
2022/04/21 07:35:14;;;;;;;5.43;3.30;;;;;;;;;;5013244;28;20076;-80
2022/04/21 07:37:39;;;;;;;4.53;3.40;;;;;;;;;;5015447;28;20030;-80
2022/04/21 07:40:04;;;;;;;5.95;3.40;;;;;;;;;;5016041;28;20069;-80
2022/04/21 07:42:30;;;;;;;4.93;3.50;;;;;;;;;;5015888;28;20049;-81
2022/04/21 07:44:55;;;;;;;5.63;3.60;;;;;;;;;;5016628;28;20544;-81
2022/04/21 07:47:20;;;;;;;5.55;3.60;;;;;;;;;;5014971;28;20038;-80
2022/04/21 07:49:46;;;;;;;7.57;3.35;;;;;;;;;;5015058;28;20044;-81
2022/04/21 07:54:55;;;;;;;4.90;3.20;;;;;;;;;;5018438;28;20045;-79
2022/04/21 07:57:20;;;;;;;4.85;3.40;;;;;;;;;;5023998;28;20401;-79
2022/04/21 07:59:47;;;;;;;4.65;3.20;;;;;;;;;;5013540;28;20084;-80
2022/04/21 08:02:13;;;;;;;4.60;3.30;;;;;;;;;;5016026;28;20037;-82
2022/04/21 08:04:38;;;;;;;5.78;3.40;;;;;;;;;;5012794;28;20407;-79
2022/04/21 08:07:03;;;;;;;5.32;3.40;;;;;;;;;;5015437;28;20110;-79
2022/04/21 08:09:29;;;;;;;4.60;3.13;;;;;;;;;;5014584;28;20045;-79
2022/04/21 08:11:55;;;;;;;7.45;3.40;;;;;;;;;;5012852;28;20045;-79
2022/04/21 08:14:20;;;;;;;5.13;3.05;;;;;;;;;;5013297;28;20446;-79
2022/04/21 08:16:45;;;;;;;5.80;3.60;;;;;;;;;;5014552;28;20548;-79
2022/04/21 08:19:10;;;;;;;5.07;3.38;;;;;;;;;;5013729;28;20822;-80
2022/04/21 08:21:37;;;;;;;5.65;3.50;;;;;;;;;;5014586;28;20041;-80
2022/04/21 08:32:33;;;;;;;5.47;3.38;;;;;;;;;;5022606;28;20479;-79
2022/04/21 08:32:33;;;;;;;;;;;;;;;;;;5014737;28;20057;-81
2022/04/21 08:34:58;;;;;;;4.28;3.03;;;;;;;;;;5012223;28;19917;-80
2022/04/21 08:37:24;;;;;;;5.22;3.50;;;;;;;;;;5014169;28;20144;-81
2022/04/21 08:39:49;;;;;;;7.05;3.75;;;;;;;;;;5014028;28;20041;-81
2022/04/21 08:42:14;;;;;;;4.50;3.35;;;;;;;;;;5014016;28;20036;-82
2022/04/21 08:44:41;;;;;;;6.03;3.80;;;;;;;;;;5014304;28;20057;-83
2022/04/21 08:47:06;;;;;;;6.20;3.83;;;;;;;;;;5014679;28;20030;-81
2022/04/21 08:49:31;;;;;;;5.28;3.47;;;;;;;;;;5014069;28;20049;-81
2022/04/21 08:51:56;;;;;;;7.22;3.60;;;;;;;;;;5013245;28;20029;-81
2022/04/21 08:54:22;;;;;;;6.82;3.50;;;;;;;;;;5012630;28;20498;-81
2022/04/21 08:56:49;;;;;;;7.22;3.65;;;;;;;;;;5020390;28;20127;-81
2022/04/21 08:59:15;;;;;;;7.25;3.42;;;;;;;;;;5017510;28;20026;-82
2022/04/21 09:01:40;;;;;;;3.85;3.20;;;;;;;;;;5013942;28;20026;-82
2022/04/21 09:04:06;;;;;;;9.52;3.60;;;;;;;;;;5014775;28;20178;-81
2022/04/21 09:06:31;;;;;;;6.05;3.42;;;;;;;;;;5014888;28;20041;-81
2022/04/21 09:08:56;;;;;;;7.43;3.70;;;;;;;;;;5023402;23;20054;-85
2022/04/21 09:11:21;;;;;;;5.60;3.40;;;;;;;;;;4976763;28;20039;-84
2022/04/21 09:13:47;;;;;;;7.20;3.53;;;;;;;;;;4980789;28;20034;-84
2022/04/21 09:16:14;;;;;;;5.20;3.90;;;;;;;;;;4983335;28;20282;-83
2022/04/21 09:18:39;;;;;;;5.82;3.85;;;;;;;;;;4974909;28;20030;-84
2022/04/21 09:21:04;;;;;;;6.82;3.65;;;;;;;;;;4976389;28;20093;-83
2022/04/21 09:23:29;;;;;;;6.50;3.70;;;;;;;;;;4975530;28;20039;-84
2022/04/21 09:25:55;;;;;;;6.07;3.80;;;;;;;;;;4958593;28;20046;-84
2022/04/21 09:28:20;;;;;;;5.82;3.97;;;;;;;;;;4974430;28;20061;-83
2022/04/21 09:30:45;;;;;;;7.13;3.97;;;;;;;;;;4976278;28;20403;-83
2022/04/21 09:33:10;;;;;;;6.38;3.60;;;;;;;;;;4975134;28;20030;-83
2022/04/21 09:35:37;;;;;;;5.93;4.13;;;;;;;;;;4974463;28;20078;-83
2022/04/21 09:38:05;;;;;;;7.90;3.90;;;;;;;;;;4974691;28;20111;-83
2022/04/21 09:40:32;;;;;;;5.60;3.85;;;;;;;;;;4975467;28;20041;-84
2022/04/21 09:42:57;;;;;;;5.85;4.18;;;;;;;;;;4974621;28;20149;-84
2022/04/21 09:48:06;;;;;;;8.20;4.53;;;;;;;;;;4975324;28;20031;-82
2022/04/21 09:50:32;;;;;;;7.18;4.50;;;;;;;;;;4974625;28;20038;-84
2022/04/21 09:52:57;;;;;;;7.47;4.50;;;;;;;;;;4975489;28;20035;-84
2022/04/21 09:55:22;;;;;;;8.95;5.10;;;;;;;;;;4957700;28;20039;-84
2022/04/21 09:57:47;;;;;;;6.43;4.43;;;;;;;;;;4975522;28;20046;-83
2022/04/21 10:00:13;;;;;;;9.32;4.70;;;;;;;;;;4976461;28;20062;-83
2022/04/21 10:02:38;;;;;;;5.93;4.47;;;;;;;;;;4975693;28;20035;-84
2022/04/21 10:05:04;;;;;;;6.18;4.75;;;;;;;;;;4973733;28;20113;-83
2022/04/21 10:07:29;;;;;;;7.75;4.68;;;;;;;;;;4975558;28;20038;-83
2022/04/21 10:09:54;;;;;;;6.22;4.68;;;;;;;;;;4971646;28;20035;-83
2022/04/21 10:12:20;;;;;;;7.38;5.00;;;;;;;;;;4974868;28;20043;-85
2022/04/21 10:14:45;;;;;;;7.72;4.70;;;;;;;;;;4977673;28;20039;-87
2022/04/21 10:17:10;;;;;;;6.40;4.65;;;;;;;;;;4959631;28;20476;-82
2022/04/21 10:19:36;;;;;;;7.28;4.82;;;;;;;;;;4977695;28;20031;-83
2022/04/21 10:22:02;;;;;;;8.10;4.75;;;;;;;;;;4978028;28;20035;-84
2022/04/21 10:24:27;;;;;;;5.72;4.22;;;;;;;;;;4974802;28;20039;-83
2022/04/21 10:26:53;;;;;;;5.22;3.65;;;;;;;;;;4976340;28;20066;-83
2022/04/21 10:29:18;;;;;;;6.65;4.10;;;;;;;;;;4975015;28;20062;-83
2022/04/21 10:31:43;;;;;;;5.05;3.88;;;;;;;;;;4979931;28;20090;-84
2022/04/21 10:34:09;;;;;;;6.20;3.70;;;;;;;;;;4974960;28;20030;-86
2022/04/21 10:36:34;;;;;;;6.50;4.30;;;;;;;;;;4979622;28;20240;-84
2022/04/21 10:38:59;;;;;;;6.18;4.30;;;;;;;;;;4981533;28;20031;-83
2022/04/21 10:41:24;;;;;;;6.65;4.40;;;;;;;;;;4980161;28;20039;-84
2022/04/21 10:43:50;;;;;;;7.50;4.53;;;;;;;;;;4964362;28;20093;-84
2022/04/21 10:46:15;;;;;;;5.53;4.40;;;;;;;;;;4982043;28;20039;-83
2022/04/21 10:48:40;;;;;;;7.18;4.78;;;;;;;;;;4981911;28;20112;-85
2022/04/21 10:51:06;;;;;;;8.43;4.50;;;;;;;;;;4982586;28;20038;-84
2022/04/21 10:58:59;;;;;;;6.03;4.60;;;;;;;;;;4981233;28;20085;-86
2022/04/21 11:01:27;;;;;;;6.45;4.55;;;;;;;;;;4983765;28;20213;-86
2022/04/21 11:03:52;;;;;;;10.02;4.18;;;;;;;;;;4987218;28;20034;-86
2022/04/21 11:06:18;;;;;;;6.10;4.15;;;;;;;;;;4981900;28;20091;-85
2022/04/21 11:08:43;;;;;;;6.53;3.70;;;;;;;;;;4982112;28;20035;-85
2022/04/21 11:11:08;;;;;;;7.28;4.60;;;;;;;;;;4982876;28;20034;-85
2022/04/21 11:13:33;;;;;;;5.68;4.38;;;;;;;;;;4982412;28;20125;-85
2022/04/21 11:15:59;;;;;;;6.75;4.35;;;;;;;;;;4980408;28;20034;-86
2022/04/21 11:18:24;;;;;;;5.53;3.78;;;;;;;;;;4980602;28;20026;-84
2022/04/21 11:20:49;;;;;;;5.47;4.10;;;;;;;;;;4980268;28;20093;-85
2022/04/21 11:23:15;;;;;;;7.47;4.28;;;;;;;;;;4979185;28;20046;-88
2022/04/21 11:25:41;;;;;;;5.22;4.00;;;;;;;;;;4979313;28;20510;-85
2022/04/21 11:28:06;;;;;;;5.05;3.63;;;;;;;;;;4980766;28;20074;-86
2022/04/21 11:30:31;;;;;;;6.25;3.78;;;;;;;;;;4981688;28;20034;-86
2022/04/21 11:32:57;;;;;;;6.13;4.10;;;;;;;;;;4980689;28;20496;-85
2022/04/21 11:35:22;;;;;;;5.72;4.00;;;;;;;;;;4978998;28;20039;-85
2022/04/21 11:37:48;;;;;;;6.57;4.40;;;;;;;;;;4979253;28;20039;-86
2022/04/21 11:40:13;;;;;;;6.85;4.70;;;;;;;;;;4980337;28;20026;-85
2022/04/21 11:42:38;;;;;;;6.47;4.20;;;;;;;;;;4963392;28;20041;-85
2022/04/21 11:45:03;;;;;;;6.75;4.00;;;;;;;;;;4979923;28;20061;-86
2022/04/21 11:47:29;;;;;;;6.35;4.03;;;;;;;;;;4980158;28;20037;-87
2022/04/21 11:49:54;;;;;;;6.00;3.90;;;;;;;;;;4979601;28;20043;-85
2022/04/21 11:52:19;;;;;;;7.93;4.15;;;;;;;;;;4979443;28;20118;-84
2022/04/21 11:54:44;;;;;;;6.55;3.85;;;;;;;;;;4979655;28;20035;-85
2022/04/21 11:57:09;;;;;;;6.63;3.95;;;;;;;;;;4980011;28;20031;-85
2022/04/21 11:59:36;;;;;;;6.32;3.78;;;;;;;;;;4977840;28;20078;-84
2022/04/21 12:07:29;;;;;;;6.75;4.28;;;;;;;;;;4978606;28;20035;-83
2022/04/21 12:09:55;;;;;;;4.63;3.42;;;;;;;;;;4982854;28;20061;-82
2022/04/21 12:12:21;;;;;;;5.63;4.18;;;;;;;;;;4975222;28;20093;-84
2022/04/21 12:14:46;;;;;;;6.57;3.95;;;;;;;;;;4975246;28;20046;-82
2022/04/21 12:17:12;;;;;;;7.80;4.22;;;;;;;;;;4975714;28;20385;-85
2022/04/21 12:19:41;;;;;;;6.55;3.90;;;;;;;;;;4975785;28;20035;-85
2022/04/21 12:22:09;;;;;;;6.20;4.03;;;;;;;;;;4974926;28;20034;-84
2022/04/21 12:24:34;;;;;;;6.45;3.90;;;;;;;;;;4973897;28;20093;-82
2022/04/21 12:26:59;;;;;;;5.80;3.95;;;;;;;;;;4975582;28;20026;-82
2022/04/21 12:29:25;;;;;;;6.60;4.45;;;;;;;;;;4975881;28;20511;-84
2022/04/21 12:31:50;;;;;;;7.93;4.43;;;;;;;;;;4974248;28;20404;-83
2022/04/21 12:34:15;;;;;;;5.20;4.13;;;;;;;;;;4975352;28;20049;-84
2022/04/21 12:36:41;;;;;;;6.90;4.53;;;;;;;;;;4973872;28;20037;-83
2022/04/21 12:39:06;;;;;;;6.40;4.35;;;;;;;;;;4957592;28;20403;-84
2022/04/21 12:41:31;;;;;;;6.43;4.18;;;;;;;;;;4958090;28;20451;-83
2022/04/21 12:43:57;;;;;;;7.38;4.10;;;;;;;;;;4976944;28;20038;-86
2022/04/21 12:46:22;;;;;;;6.18;4.10;;;;;;;;;;4976581;28;20514;-84
2022/04/21 12:48:48;;;;;;;6.28;4.60;;;;;;;;;;4974438;28;20102;-82
2022/04/21 12:51:14;;;;;;;6.50;4.13;;;;;;;;;;4959524;28;20055;-82
2022/04/21 12:53:40;;;;;;;7.32;4.53;;;;;;;;;;4975972;28;20403;-83
2022/04/21 12:56:06;;;;;;;6.53;4.45;;;;;;;;;;4976637;28;20039;-84
2022/04/21 12:58:31;;;;;;;6.63;4.10;;;;;;;;;;4976489;28;20038;-84
2022/04/21 13:00:56;;;;;;;4.95;3.80;;;;;;;;;;4975181;28;20042;-83
2022/04/21 13:03:22;;;;;;;5.13;3.80;;;;;;;;;;4975636;28;20105;-83
2022/04/21 13:05:49;;;;;;;6.15;4.30;;;;;;;;;;4980709;28;20094;-86
2022/04/21 13:08:14;;;;;;;5.30;4.00;;;;;;;;;;4973902;28;20049;-83
2022/04/21 13:10:39;;;;;;;7.63;4.50;;;;;;;;;;4974498;28;20034;-83
2022/04/21 13:13:04;;;;;;;4.50;3.50;;;;;;;;;;4974334;28;20477;-83
2022/04/21 13:15:30;;;;;;;6.93;4.15;;;;;;;;;;4975164;28;20049;-83
2022/04/21 13:17:55;;;;;;;6.78;3.75;;;;;;;;;;4976187;28;20042;-85
2022/04/21 13:23:04;;;;;;;6.07;4.05;;;;;;;;;;4976439;28;20061;-84
2022/04/21 13:25:29;;;;;;;5.88;3.63;;;;;;;;;;4974007;28;20027;-82
2022/04/21 13:27:55;;;;;;;6.90;4.20;;;;;;;;;;4958550;28;20031;-84
2022/04/21 13:30:20;;;;;;;5.43;3.85;;;;;;;;;;4975697;28;20034;-84
2022/04/21 13:35:29;;;;;;;10.30;3.60;;;;;;;;;;4977796;28;20039;-83
2022/04/21 13:37:55;;;;;;;7.65;3.92;;;;;;;;;;4978278;28;20057;-85
2022/04/21 13:40:20;;;;;;;6.22;3.90;;;;;;;;;;4978508;28;20038;-86
2022/04/21 13:42:45;;;;;;;5.53;4.03;;;;;;;;;;4976983;28;20043;-85
2022/04/21 13:45:11;;;;;;;7.38;4.13;;;;;;;;;;4978112;28;20049;-88
2022/04/21 13:47:37;;;;;;;5.20;4.00;;;;;;;;;;4961068;28;20492;-84
2022/04/21 13:50:02;;;;;;;6.32;4.13;;;;;;;;;;4978226;28;20050;-83
2022/04/21 13:52:27;;;;;;;8.02;4.10;;;;;;;;;;4977842;28;20031;-82
2022/04/21 13:54:52;;;;;;;14.27;4.10;;;;;;;;;;4977376;28;20031;-83
2022/04/21 13:57:18;;;;;;;8.25;4.10;;;;;;;;;;4976409;28;20541;-82
2022/04/21 13:59:43;;;;;;;6.18;4.78;;;;;;;;;;4977636;28;20031;-83
2022/04/21 14:02:09;;;;;;;7.93;4.88;;;;;;;;;;4977828;28;20045;-82
2022/04/21 14:04:34;;;;;;;5.07;3.80;;;;;;;;;;4973661;28;20166;-81
2022/04/21 14:06:59;;;;;;;7.20;4.18;;;;;;;;;;4975666;28;20054;-81
2022/04/21 14:09:24;;;;;;;7.63;4.00;;;;;;;;;;4975013;28;20118;-81
2022/04/21 14:11:51;;;;;;;6.88;4.70;;;;;;;;;;4978228;28;20050;-81
2022/04/21 14:14:17;;;;;;;7.55;4.93;;;;;;;;;;4976915;28;20097;-82
2022/04/21 14:16:42;;;;;;;6.15;4.85;;;;;;;;;;4978712;28;20042;-81
2022/04/21 14:19:07;;;;;;;6.32;4.53;;;;;;;;;;4982812;28;20034;-81
2022/04/21 14:21:33;;;;;;;6.28;4.97;;;;;;;;;;4979663;28;20030;-84
2022/04/21 14:23:58;;;;;;;5.57;4.78;;;;;;;;;;4978197;28;20046;-83
2022/04/21 14:26:24;;;;;;;6.60;4.70;;;;;;;;;;4980361;28;20027;-82
2022/04/21 14:28:49;;;;;;;6.28;4.40;;;;;;;;;;4978927;28;20481;-84
2022/04/21 14:31:14;;;;;;;8.32;4.43;;;;;;;;;;4978874;28;20039;-81
2022/04/21 14:33:41;;;;;;;5.72;3.90;;;;;;;;;;4977574;28;20070;-82
2022/04/21 14:36:06;;;;;;;9.02;3.78;;;;;;;;;;4978967;28;20525;-81
2022/04/21 14:44:05;;;;;;;;;;;;;;;;;;4978953;28;20039;-82
2022/04/21 14:46:30;;;;;;;4.60;3.50;;;;;;;;;;4977186;28;19987;-81
2022/04/21 14:48:55;;;;;;;5.47;3.55;;;;;;;;;;4960357;28;20038;-84
2022/04/21 14:51:21;;;;;;;7.53;3.50;;;;;;;;;;4977093;28;20073;-82
2022/04/21 14:53:46;;;;;;;4.63;3.70;;;;;;;;;;4976522;28;20050;-83
2022/04/21 14:56:12;;;;;;;5.63;3.67;;;;;;;;;;4983144;28;20428;-82
2022/04/21 14:58:37;;;;;;;5.05;3.40;;;;;;;;;;4978215;28;20060;-80
2022/04/21 15:01:02;;;;;;;7.85;3.65;;;;;;;;;;4978225;28;20031;-83
2022/04/21 15:03:30;;;;;;;6.53;3.60;;;;;;;;;;4977046;28;20027;-82
2022/04/21 15:05:56;;;;;;;4.80;3.20;;;;;;;;;;4977417;28;20054;-82
2022/04/21 15:08:21;;;;;;;4.63;3.22;;;;;;;;;;4977722;28;20500;-81
2022/04/21 15:10:46;;;;;;;4.82;3.30;;;;;;;;;;4995962;23;20058;-82
2022/04/21 15:13:11;;;;;;;5.18;3.78;;;;;;;;;;4981175;28;20053;-82
2022/04/21 15:15:37;;;;;;;6.07;3.08;;;;;;;;;;4976588;28;20046;-83
2022/04/21 15:18:02;;;;;;;3.90;3.05;;;;;;;;;;4970713;28;20038;-84
2022/04/21 15:20:29;;;;;;;4.60;3.40;;;;;;;;;;4968795;28;20043;-84
2022/04/21 15:22:54;;;;;;;5.70;3.50;;;;;;;;;;4961504;28;20171;-84
2022/04/21 15:25:20;;;;;;;3.80;2.85;;;;;;;;;;4978178;28;20151;-83
2022/04/21 15:27:45;;;;;;;5.10;3.08;;;;;;;;;;4980797;28;20042;-85
2022/04/21 15:30:10;;;;;;;8.65;3.55;;;;;;;;;;4981416;28;20038;-84
2022/04/21 15:32:35;;;;;;;14.45;3.70;;;;;;;;;;4974341;28;20083;-83
2022/04/21 15:35:01;;;;;;;6.85;3.40;;;;;;;;;;4961451;29;20507;-83